Chitose — JD2925 — position and weather

sailwx.info

Track history (hours):
 
Tides and Currents Weather Stations Pressure Air Temp Water Temp Dewpoint Dewpoint Depression Visibility Wind Speed Wind Dir Waves Ship Positions

Chitose

Last reported at 2014-Aug-02 04:33 UTC. Time now 2014-Aug-02 04:41 UTC.
Position N 35°27' E 139°40'.

Length 33 m; draft 3.8 m.

Type: Tug. MMSI: 431000953.

Date/timePositionNaut miles runAvg speedWind from/ knotsBaromVisibWave heightAir tempDewpointWater temp
2014-Aug-02 04:33N 35°27' E 139°40'0 0.0
2014-Aug-02 03:33N 35°27' E 139°40'0 0.0
2014-Aug-02 02:33N 35°27' E 139°40'3 2.7
2014-Aug-02 01:33N 35°25' E 139°42'3 3.3
2014-Aug-02 00:33N 35°24' E 139°38'1 1.3
2014-Aug-01 23:33N 35°23' E 139°40'0 0.0
2014-Aug-01 22:33N 35°23' E 139°40'1 1.0
2014-Aug-01 21:34N 35°24' E 139°41'1 0.9
2014-Aug-01 20:33N 35°24' E 139°42'3 3.4
2014-Aug-01 19:33N 35°27' E 139°40'0 0.0
2014-Aug-01 08:33N 35°27' E 139°40'0 0.0
2014-Aug-01 07:34N 35°27' E 139°40'1 1.0
2014-Aug-01 06:34N 35°27' E 139°41'1 0.6
2014-Aug-01 05:33N 35°27' E 139°40'1 0.8
2014-Aug-01 04:33N 35°27' E 139°39'0 0.0
2014-Aug-01 03:33N 35°27' E 139°39'0 0.0
2014-Aug-01 02:33N 35°27' E 139°39'0 0.0
2014-Aug-01 01:34N 35°27' E 139°39'0 0.0
2014-Aug-01 00:33N 35°27' E 139°39'3 2.8
2014-Jul-31 23:33N 35°28' E 139°43'2 2.2
2014-Jul-31 22:34N 35°26' E 139°44'4 3.9
2014-Jul-31 21:34N 35°29' E 139°40'2 2.0
2014-Jul-31 20:33N 35°27' E 139°39'0 0.0
2014-Jul-31 07:30N 35°27' E 139°39'0 0.0
2014-Jul-31 06:33N 35°27' E 139°39'0 0.0
2014-Jul-31 05:33N 35°27' E 139°39'0 0.0
2014-Jul-31 04:33N 35°27' E 139°39'0 0.0
2014-Jul-31 03:33N 35°27' E 139°39'2 1.6
2014-Jul-31 02:33N 35°27' E 139°41'2 1.7
2014-Jul-31 01:34N 35°27' E 139°39'0 0.1
2014-Jul-31 00:33N 35°27' E 139°39'0 0.0
2014-Jul-30 23:33N 35°27' E 139°39'0 0.0
2014-Jul-30 22:33N 35°27' E 139°39'2 0.1
2014-Jul-30 03:29N 35°26' E 139°42'1 0.9
2014-Jul-30 02:33N 35°26' E 139°41'1 1.0
2014-Jul-30 01:33N 35°27' E 139°42'0 0.0
2014-Jul-30 00:33N 35°27' E 139°42'0 0.0
2014-Jul-29 23:33N 35°27' E 139°42'1 0.6
2014-Jul-29 22:34N 35°27' E 139°41'1 1.3
2014-Jul-29 21:33N 35°27' E 139°43'1 1.3
2014-Jul-29 20:33N 35°28' E 139°43'1 0.7
2014-Jul-29 19:33N 35°27' E 139°42'0 0.0
2014-Jul-29 18:33N 35°27' E 139°42'0 0.0
2014-Jul-29 17:33N 35°27' E 139°42'0 0.0
2014-Jul-29 16:33N 35°27' E 139°42'0 0.0
2014-Jul-29 15:33N 35°27' E 139°42'1 1.0
2014-Jul-29 14:33N 35°26' E 139°42'1 0.7
2014-Jul-29 13:33N 35°27' E 139°43'0 0.0
2014-Jul-29 12:33N 35°27' E 139°43'2 1.9
2014-Jul-29 11:34N 35°26' E 139°41'2 2.5
2014-Jul-29 10:33N 35°27' E 139°44'1 0.7
2014-Jul-29 09:33N 35°27' E 139°43'2 2.1
2014-Jul-29 08:33N 35°28' E 139°41'2 1.8
2014-Jul-29 07:33N 35°27' E 139°39'0 0.0
2014-Jul-29 06:33N 35°27' E 139°39'0 0.0
2014-Jul-29 05:33N 35°27' E 139°39'0 0.0
2014-Jul-29 04:33N 35°27' E 139°39'0 0.0
2014-Jul-29 03:33N 35°27' E 139°39'0 0.0
2014-Jul-29 02:33N 35°27' E 139°39'0 0.0
2014-Jul-29 01:33N 35°27' E 139°39'0 0.0
2014-Jul-29 00:33N 35°27' E 139°39'0 0.0
2014-Jul-28 23:33N 35°27' E 139°39'0 0.0
2014-Jul-28 07:15N 35°27' E 139°39'0 0.0
2014-Jul-28 06:33N 35°27' E 139°39'0 0.0
2014-Jul-28 05:33N 35°27' E 139°39'0 0.0
2014-Jul-28 04:33N 35°27' E 139°39'0 0.0
2014-Jul-28 03:33N 35°27' E 139°39'0 0.0
2014-Jul-28 02:33N 35°27' E 139°39'0 0.0
2014-Jul-28 01:33N 35°27' E 139°39'0 0.1
2014-Jul-28 00:33N 35°27' E 139°39'3 3.5
2014-Jul-27 23:33N 35°24' E 139°37'0 0.3
2014-Jul-27 22:33N 35°24' E 139°38'2 1.9
2014-Jul-27 21:33N 35°24' E 139°40'2 1.5
2014-Jul-27 20:33N 35°24' E 139°42'3 3.3
2014-Jul-27 19:33N 35°27' E 139°39'0 0.0
2014-Jul-27 10:20N 35°27' E 139°39'2 2.4
2014-Jul-27 09:33N 35°28' E 139°41'3 3.4
2014-Jul-27 08:34N 35°27' E 139°45'5 4.9
2014-Jul-27 07:33N 35°27' E 139°39'0 0.2
2014-Jul-27 06:34N 35°27' E 139°39'1 0.9
2014-Jul-27 05:33N 35°27' E 139°40'1 0.9
2014-Jul-27 04:33N 35°28' E 139°41'0 0.0
2014-Jul-27 03:33N 35°28' E 139°41'0 0.0
2014-Jul-27 02:33N 35°28' E 139°41'0 0.0
2014-Jul-27 01:33N 35°28' E 139°41'0 0.0
2014-Jul-27 00:33N 35°28' E 139°41'0 0.0
2014-Jul-26 23:33N 35°28' E 139°41'2 1.7
2014-Jul-26 22:33N 35°27' E 139°42'2 2.4
2014-Jul-26 21:33N 35°27' E 139°39'0 0.0
2014-Jul-25 07:09N 35°27' E 139°39'1 1.9
2014-Jul-25 06:33N 35°28' E 139°40'0 0.0
2014-Jul-25 05:33N 35°28' E 139°40'0 0.0
2014-Jul-25 04:33N 35°28' E 139°40'0 0.0
2014-Jul-25 03:33N 35°28' E 139°40'0 0.0
2014-Jul-25 02:34N 35°28' E 139°40'0 0.0
2014-Jul-25 01:34N 35°28' E 139°40'4 4.2
2014-Jul-25 00:34N 35°29' E 139°45'3 2.6
2014-Jul-24 23:34N 35°31' E 139°46'7 6.9
2014-Jul-24 22:34N 35°27' E 139°39'0 0.0
2014-Jul-24 21:34N 35°27' E 139°39'0 0.0
2014-Jul-24 20:33N 35°27' E 139°39'0 0.0
2014-Jul-24 07:11N 35°27' E 139°39'0 0.0
2014-Jul-24 06:33N 35°27' E 139°39'0 0.0
2014-Jul-24 05:33N 35°27' E 139°39'0 0.0
2014-Jul-24 04:33N 35°27' E 139°39'0 0.0
2014-Jul-24 03:33N 35°27' E 139°39'0 0.0
2014-Jul-24 02:33N 35°27' E 139°39'0 0.0
2014-Jul-24 01:33N 35°27' E 139°39'1 0.9
2014-Jul-24 00:33N 35°27' E 139°40'2 2.0
2014-Jul-23 23:33N 35°25' E 139°42'1 1.5
2014-Jul-23 22:33N 35°26' E 139°41'1 1.5
2014-Jul-23 21:33N 35°27' E 139°39'2 0.2
2014-Jul-23 07:33N 35°27' E 139°42'3 3.3
2014-Jul-23 06:33N 35°30' E 139°44'4 3.6
2014-Jul-23 05:33N 35°28' E 139°40'0 0.0
2014-Jul-23 04:33N 35°28' E 139°40'  
Track history (hours):
 
Tides and Currents Weather Stations Pressure Air Temp Water Temp Dewpoint Dewpoint Depression Visibility Wind Speed Wind Dir Waves Ship Positions

Chitose

Last reported at 2014-Aug-02 04:33 UTC. Time now 2014-Aug-02 04:41 UTC.
Position N 35°27' E 139°40'.

Length 33 m; draft 3.8 m.

Type: Tug. MMSI: 431000953.

Date/timePositionNaut miles runAvg speedWind from/ knotsBaromVisibWave heightAir tempDewpointWater temp
2014-Aug-02 04:33N 35°27' E 139°40'0 0.0
2014-Aug-02 03:33N 35°27' E 139°40'0 0.0
2014-Aug-02 02:33N 35°27' E 139°40'3 2.7
2014-Aug-02 01:33N 35°25' E 139°42'3 3.3
2014-Aug-02 00:33N 35°24' E 139°38'1 1.3
2014-Aug-01 23:33N 35°23' E 139°40'0 0.0
2014-Aug-01 22:33N 35°23' E 139°40'1 1.0
2014-Aug-01 21:34N 35°24' E 139°41'1 0.9
2014-Aug-01 20:33N 35°24' E 139°42'3 3.4
2014-Aug-01 19:33N 35°27' E 139°40'0 0.0
2014-Aug-01 08:33N 35°27' E 139°40'0 0.0
2014-Aug-01 07:34N 35°27' E 139°40'1 1.0
2014-Aug-01 06:34N 35°27' E 139°41'1 0.6
2014-Aug-01 05:33N 35°27' E 139°40'1 0.8
2014-Aug-01 04:33N 35°27' E 139°39'0 0.0
2014-Aug-01 03:33N 35°27' E 139°39'0 0.0
2014-Aug-01 02:33N 35°27' E 139°39'0 0.0
2014-Aug-01 01:34N 35°27' E 139°39'0 0.0
2014-Aug-01 00:33N 35°27' E 139°39'3 2.8
2014-Jul-31 23:33N 35°28' E 139°43'2 2.2
2014-Jul-31 22:34N 35°26' E 139°44'4 3.9
2014-Jul-31 21:34N 35°29' E 139°40'2 2.0
2014-Jul-31 20:33N 35°27' E 139°39'0 0.0
2014-Jul-31 07:30N 35°27' E 139°39'0 0.0
2014-Jul-31 06:33N 35°27' E 139°39'0 0.0
2014-Jul-31 05:33N 35°27' E 139°39'0 0.0
2014-Jul-31 04:33N 35°27' E 139°39'0 0.0
2014-Jul-31 03:33N 35°27' E 139°39'2 1.6
2014-Jul-31 02:33N 35°27' E 139°41'2 1.7
2014-Jul-31 01:34N 35°27' E 139°39'0 0.1
2014-Jul-31 00:33N 35°27' E 139°39'0 0.0
2014-Jul-30 23:33N 35°27' E 139°39'0 0.0
2014-Jul-30 22:33N 35°27' E 139°39'2 0.1
2014-Jul-30 03:29N 35°26' E 139°42'1 0.9
2014-Jul-30 02:33N 35°26' E 139°41'1 1.0
2014-Jul-30 01:33N 35°27' E 139°42'0 0.0
2014-Jul-30 00:33N 35°27' E 139°42'0 0.0
2014-Jul-29 23:33N 35°27' E 139°42'1 0.6
2014-Jul-29 22:34N 35°27' E 139°41'1 1.3
2014-Jul-29 21:33N 35°27' E 139°43'1 1.3
2014-Jul-29 20:33N 35°28' E 139°43'1 0.7
2014-Jul-29 19:33N 35°27' E 139°42'0 0.0
2014-Jul-29 18:33N 35°27' E 139°42'0 0.0
2014-Jul-29 17:33N 35°27' E 139°42'0 0.0
2014-Jul-29 16:33N 35°27' E 139°42'0 0.0
2014-Jul-29 15:33N 35°27' E 139°42'1 1.0
2014-Jul-29 14:33N 35°26' E 139°42'1 0.7
2014-Jul-29 13:33N 35°27' E 139°43'0 0.0
2014-Jul-29 12:33N 35°27' E 139°43'2 1.9
2014-Jul-29 11:34N 35°26' E 139°41'2 2.5
2014-Jul-29 10:33N 35°27' E 139°44'1 0.7
2014-Jul-29 09:33N 35°27' E 139°43'2 2.1
2014-Jul-29 08:33N 35°28' E 139°41'2 1.8
2014-Jul-29 07:33N 35°27' E 139°39'0 0.0
2014-Jul-29 06:33N 35°27' E 139°39'0 0.0
2014-Jul-29 05:33N 35°27' E 139°39'0 0.0
2014-Jul-29 04:33N 35°27' E 139°39'0 0.0
2014-Jul-29 03:33N 35°27' E 139°39'0 0.0
2014-Jul-29 02:33N 35°27' E 139°39'0 0.0
2014-Jul-29 01:33N 35°27' E 139°39'0 0.0
2014-Jul-29 00:33N 35°27' E 139°39'0 0.0
2014-Jul-28 23:33N 35°27' E 139°39'0 0.0
2014-Jul-28 07:15N 35°27' E 139°39'0 0.0
2014-Jul-28 06:33N 35°27' E 139°39'0 0.0
2014-Jul-28 05:33N 35°27' E 139°39'0 0.0
2014-Jul-28 04:33N 35°27' E 139°39'0 0.0
2014-Jul-28 03:33N 35°27' E 139°39'0 0.0
2014-Jul-28 02:33N 35°27' E 139°39'0 0.0
2014-Jul-28 01:33N 35°27' E 139°39'0 0.1
2014-Jul-28 00:33N 35°27' E 139°39'3 3.5
2014-Jul-27 23:33N 35°24' E 139°37'0 0.3
2014-Jul-27 22:33N 35°24' E 139°38'2 1.9
2014-Jul-27 21:33N 35°24' E 139°40'2 1.5
2014-Jul-27 20:33N 35°24' E 139°42'3 3.3
2014-Jul-27 19:33N 35°27' E 139°39'0 0.0
2014-Jul-27 10:20N 35°27' E 139°39'2 2.4
2014-Jul-27 09:33N 35°28' E 139°41'3 3.4
2014-Jul-27 08:34N 35°27' E 139°45'5 4.9
2014-Jul-27 07:33N 35°27' E 139°39'0 0.2
2014-Jul-27 06:34N 35°27' E 139°39'1 0.9
2014-Jul-27 05:33N 35°27' E 139°40'1 0.9
2014-Jul-27 04:33N 35°28' E 139°41'0 0.0
2014-Jul-27 03:33N 35°28' E 139°41'0 0.0
2014-Jul-27 02:33N 35°28' E 139°41'0 0.0
2014-Jul-27 01:33N 35°28' E 139°41'0 0.0
2014-Jul-27 00:33N 35°28' E 139°41'0 0.0
2014-Jul-26 23:33N 35°28' E 139°41'2 1.7
2014-Jul-26 22:33N 35°27' E 139°42'2 2.4
2014-Jul-26 21:33N 35°27' E 139°39'0 0.0
2014-Jul-25 07:09N 35°27' E 139°39'1 1.9
2014-Jul-25 06:33N 35°28' E 139°40'0 0.0
2014-Jul-25 05:33N 35°28' E 139°40'0 0.0
2014-Jul-25 04:33N 35°28' E 139°40'0 0.0
2014-Jul-25 03:33N 35°28' E 139°40'0 0.0
2014-Jul-25 02:34N 35°28' E 139°40'0 0.0
2014-Jul-25 01:34N 35°28' E 139°40'4 4.2
2014-Jul-25 00:34N 35°29' E 139°45'3 2.6
2014-Jul-24 23:34N 35°31' E 139°46'7 6.9
2014-Jul-24 22:34N 35°27' E 139°39'0 0.0
2014-Jul-24 21:34N 35°27' E 139°39'0 0.0
2014-Jul-24 20:33N 35°27' E 139°39'0 0.0
2014-Jul-24 07:11N 35°27' E 139°39'0 0.0
2014-Jul-24 06:33N 35°27' E 139°39'0 0.0
2014-Jul-24 05:33N 35°27' E 139°39'0 0.0
2014-Jul-24 04:33N 35°27' E 139°39'0 0.0
2014-Jul-24 03:33N 35°27' E 139°39'0 0.0
2014-Jul-24 02:33N 35°27' E 139°39'0 0.0
2014-Jul-24 01:33N 35°27' E 139°39'1 0.9
2014-Jul-24 00:33N 35°27' E 139°40'2 2.0
2014-Jul-23 23:33N 35°25' E 139°42'1 1.5
2014-Jul-23 22:33N 35°26' E 139°41'1 1.5
2014-Jul-23 21:33N 35°27' E 139°39'2 0.2
2014-Jul-23 07:33N 35°27' E 139°42'3 3.3
2014-Jul-23 06:33N 35°30' E 139°44'4 3.6
2014-Jul-23 05:33N 35°28' E 139°40'0 0.0
2014-Jul-23 04:33N 35°28' E 139°40'  

Dump ship's entire track history